Погода Джейкобабадна 2 недели

Белуджистан, Пакистан

14 - 27 июля
  • 14июля
    Сегодня
    +31°
    +42°
    Ясно и безоблачно
    ВремяПогодаТемператураВлажностьДавлениеВетер, м/сВероятность осадков
    02:00Ясно и безоблачно+34°C49 %740 мм1.1 м/с3 %
    05:00Ясно и безоблачно+31°C60 %741 мм1.0 м/с2 %
    08:00Ясно и безоблачно+32°C56 %741 мм0.8 м/с2 %
    11:00Ясно и безоблачно+37°C41 %741 мм0.9 м/с2 %
    14:00Ясно и безоблачно+42°C31 %739 мм1.3 м/с2 %
    17:00Практически безоблачно+40°C29 %738 мм1.1 м/с5 %
    20:00Ясно и безоблачно+34°C51 %740 мм1.3 м/с2 %
    23:00Ясно и безоблачно+34°C58 %742 мм1.4 м/с1 %
  • 15июля
    Понедельник
    +32°
    +42°
    Ясно и безоблачно
    ВремяПогодаТемператураВлажностьДавлениеВетер, м/сВероятность осадков
    02:00Ясно и безоблачно+33°C63 %742 мм1.1 м/с2 %
    05:00Ясно и безоблачно+32°C67 %743 мм1.0 м/с6 %
    08:00Ясно и безоблачно+33°C61 %745 мм1.1 м/с2 %
    11:00Ясно и безоблачно+37°C44 %745 мм1.1 м/с1 %
    14:00Ясно и безоблачно+41°C35 %743 мм1.4 м/с2 %
    17:00Ясно и безоблачно+39°C29 %741 мм1.3 м/с2 %
    20:00Ясно и безоблачно+35°C35 %742 мм0.7 м/с2 %
    23:00Ясно и безоблачно+35°C42 %743 мм1.0 м/с2 %
  • 16июля
    Вторник
    +33°
    +43°
    Ясно и безоблачно
    ВремяПогодаТемператураВлажностьДавлениеВетер, м/сВероятность осадков
    02:00Ясно и безоблачно+34°C50 %743 мм0.9 м/с2 %
    05:00Ясно и безоблачно+33°C56 %743 мм0.8 м/с2 %
    08:00Ясно и безоблачно+35°C51 %745 мм0.8 м/с2 %
    11:00Ясно и безоблачно+39°C35 %744 мм1.0 м/с2 %
    14:00Ясно и безоблачно+42°C30 %743 мм1.3 м/с2 %
    17:00Ясно и безоблачно+42°C27 %741 мм1.2 м/с2 %
    20:00Ясно и безоблачно+37°C31 %742 мм0.8 м/с2 %
    23:00Ясно и безоблачно+36°C39 %743 мм1.0 м/с2 %
  • 17июля
    Среда
    +32°
    +44°
    Ясно и безоблачно
    ВремяПогодаТемператураВлажностьДавлениеВетер, м/сВероятность осадков
    02:00Ясно и безоблачно+35°C44 %742 мм1.2 м/с2 %
    05:00Ясно и безоблачно+33°C53 %742 мм0.8 м/с2 %
    08:00Ясно и безоблачно+35°C49 %744 мм0.9 м/с2 %
    11:00Ясно и безоблачно+40°C35 %744 мм1.1 м/с2 %
    14:00Ясно и безоблачно+43°C28 %742 мм1.4 м/с2 %
    17:00Ясно и безоблачно+43°C26 %740 мм1.4 м/с2 %
    20:00Ясно и безоблачно+37°C31 %740 мм1.1 м/с2 %
    23:00Ясно и безоблачно+35°C37 %742 мм1.5 м/с2 %
  • 18июля
    Четверг
    +29°
    +44°
    Небольшая облачность
    ВремяПогодаТемператураВлажностьДавлениеВетер, м/сВероятность осадков
    02:00Ясно и безоблачно+35°C43 %741 мм1.4 м/с2 %
    05:00Ясно и безоблачно+33°C47 %741 мм1.1 м/с3 %
    08:00Ясно и безоблачно+35°C45 %742 мм0.9 м/с2 %
    11:00Ясно и безоблачно+40°C32 %742 мм1.0 м/с2 %
    14:00Небольшая облачность+43°C26 %740 мм1.5 м/с4 %
    17:00Практически безоблачно+41°C27 %739 мм1.5 м/с2 %
    20:00Ясно и безоблачно+35°C33 %740 мм1.3 м/с4 %
    23:00Облачно с прояснениями+32°C42 %741 мм1.6 м/с10 %
Мы используем cookies
Соглашаюсь